Terminal Aerodrome Forecast
Issued by NWS

Home | Current Version | Previous Version | Text Only | Print | Product List | Glossary On
Versions: 1 2 3 4 5 6 7 8 9 10 11 12 13 14 15 16 17 18
861
FTUS43 KOAX 242105 AAC
TAFBFF
TAF AMD
KBFF 242105Z 2421/2518 34015G22KT P6SM SCT015 OVC040
      TEMPO 2421/2424 5SM -SN
     FM250000 34012G18KT 5SM -SN BKN015 OVC025=

USA.gov is the U.S. government's official web portal to all federal, state and local government web resources and services.